Tiempo atmosférico en la estación meteorológica de Águilas, Murcia (26 m.)

Fecha
DESCASC
Temp. máxima en grados centígrados (hora)
DESCASC
Temp. mínima en grados centígrados (hora)
DESCASC
Temp. media en grados centígrados
DESCASC
Racha de viento máxima en m/sg (hora)
DESCASC
Velocidad máxima media en intervalos de 10 minutos(hora)
DESCASC
Precipitaciones diarias en mm
DESCASC
Precipitaciones de 00:00 a 06:00 en mm
DESCASC
Precipitaciones de 06:00 a 12:00 en mm
DESCASC
Precipitaciones de 12:00 a 18:00 en mm
DESCASC
Precipitaciones de 18:00 a 24:00 en mm
DESCASC
23-11-2017 20.7 (14:30) 9.9 (04:30) 15.3 4.44 (15:20) 3.06 (15:20) 0 0 0 0 0
22-11-2017 19.9 (13:40) 10.2 (08:10) 15 4.17 (13:10) 2.78 (01:00) 0 0 0 0 0
21-11-2017 20.4 (14:30) 10.4 (07:40) 15.4 4.44 (13:20) 2.5 (13:30) 0 0 0 0 0
20-11-2017 19.8 (14:10) 10.8 (02:00) 15.3 4.44 (12:40) 2.22 (13:20) 0 0 0 0 0
19-11-2017 20 (11:20) 10 (00:00) 15 5 (11:30) 3.06 (12:00) 0 0 0 0 0
18-11-2017 19.2 (10:40) 10.9 (00:00) 15.1 5 (13:50) 2.5 (13:50) 0 0 0 0 0
17-11-2017 19.1 (13:00) 10 (00:00) 14.6 5.28 (13:00) 2.78 (13:00) 0 0 0 0 0
16-11-2017 19.2 (14:30) 9.7 (00:00) 14.5 5.28 (14:50) 2.5 (12:20) 0 0 0 0 0
15-11-2017 19 (13:00) 10.2 (00:00) 14.6 5.83 (15:30) 3.33 (14:40) 0 0 0 0 0
14-11-2017 18.4 (14:30) 9.7 (00:00) 14 8.89 (06:50) 3.89 (06:50) 0 0 0 0 0
13-11-2017 25 (15:50) 13.2 (00:00) 19.1 9.17 (11:10) 5.83 (12:20) 0 0 0 0 0
12-11-2017 22.9 (14:00) 11.3 (00:00) 17.1 6.67 (22:30) 3.89 (22:40) 0 0 0 0 0
11-11-2017 21.8 (12:20) 13 (00:00) 17.4 8.33 (11:40) 5.28 (13:00) 0 0 0 0 0
10-11-2017 19.6 (12:50) 11.1 (00:00) 15.4 13.61 (07:50) 7.22 (07:50) 0 0 0 0 0
09-11-2017 20.4 (15:50) 11.1 (00:00) 15.8 14.72 (04:40) 7.78 (04:10) 0 0 0 0 0
08-11-2017 21.8 (13:10) 10.3 (00:00) 16 5.83 (13:20) 3.89 (13:20) 0 0 0 0 0
07-11-2017 19.6 (14:50) 10.1 (00:00) 14.9 7.78 (04:30) 4.72 (04:30) 0 0 0 0 0
06-11-2017 23 (15:50) 13.4 (00:00) 18.2 14.72 (00:40) 7.22 (01:00) 0 0 0 0 0
05-11-2017 26 (13:30) 17.2 (00:00) 21.6 12.78 (23:20) 5.83 (23:20) 0 0 0 0 0
04-11-2017 24.4 (14:00) 16.9 (00:00) 20.6 10.56 (12:50) 5 (22:10) 0 0 0 0 0
03-11-2017 22.4 (11:50) 15.4 (00:00) 18.9 4.72 (12:20) 2.78 (12:00) 0 0 0 0 0
02-11-2017 24.7 (12:10) 16.2 (06:30) 20.5 8.33 (14:10) 5 (14:00) 0 0 0 0 0
01-11-2017 24.3 (13:00) 16.5 (00:00) 20.4 8.06 (13:50) 5 (14:00) 0 0 0 0 0
31-10-2017 25.4 (12:10) 15.7 (00:00) 20.5 9.72 (12:30) 6.11 (13:30) 0 0 0 0 0
30-10-2017 23.7 (12:10) 15.8 (00:00) 19.8 5 (15:20) 2.78 (14:40) 0 0 0 0 0
29-10-2017 23.8 (10:50) 16.9 (00:00) 20.3 5.56 (12:30) 3.33 (14:50) 0.2 0.2 0 0 0
28-10-2017 25.2 (12:00) 16.5 (00:00) 20.9 9.17 (11:20) 5.28 (13:40) 0 0 0 0 0
27-10-2017 25 (15:20) 14.4 (00:00) 19.7 4.44 (16:20) 2.5 (15:50) 0 0 0 0 0
26-10-2017 25.7 (11:40) 15.1 (00:00) 20.4 5.56 (15:30) 3.33 (16:00) 0 0 0 0 0

Gráficas

Temp. máximas Temp. mínimas Temp. medias Precipitaciones Rachas de viento máximas Velocidades máximas media en intervalos de 10 minutos

Datos horarios

Fecha y hora oficial Temperatura (ºC) Velocidad del viento (km/h) Dirección del viento Racha (km/h) Dirección de racha Precipitación (mm) Presión (hPa) Tendencia (hPa) Humedad (%)
2017-11-24 23:00:00 13.8 3 Nordeste 12 Nordeste 0 1016.6 -0.4 61
2017-11-24 22:00:00 14.3 7 Nordeste 11 Nordeste 0 1016.7 0.2 61
2017-11-24 21:00:00 13.5 3 Nordeste 6 Nordeste 0 1016.8 0.5 65
2017-11-24 20:00:00 15 3 Nordeste 8 Norte 0 1017 0.7 63
2017-11-24 19:00:00 16.4 5 Norte 10 Norte 0 1016.5 0.4 60
2017-11-24 18:00:00 18.6 0 Calma 7 Sur 0 1016.3 0 56
2017-11-24 17:00:00 19.6 4 Sur 10 Sur 0 1016.3 -0.6 52
2017-11-24 16:00:00 20.6 6 Sudoeste 12 Sur 0 1016.1 -1.1 42
2017-11-24 15:00:00 20.3 7 Sur 15 Sur 0 1016.3 -1.7 47
2017-11-24 14:00:00 20.1 8 Sur 14 Sur 0 1016.9 -1.4 45
2017-11-24 13:00:00 20.4 8 Sur 13 Sur 0 1017.2 -0.7 47
2017-11-24 12:00:00 20.4 4 Sur 8 Sur 0 1018 0.4 52
2017-11-24 11:00:00 20.2 5 Sur 10 Sur 0 1018.3 1.1 58
2017-11-24 10:00:00 18.7 4 Nordeste 8 Norte 0 1017.9 1.1 65
2017-11-24 09:00:00 13.6 6 Norte 10 Nordeste 0 1017.6 0.8 70
2017-11-24 08:00:00 11.5 5 Nordeste 10 Nordeste 0 1017.2 0.5 76
2017-11-24 07:00:00 10.8 3 Nordeste 9 Nordeste 0 1016.8 0.2 77
2017-11-24 06:00:00 11.2 3 Nordeste 8 Nordeste 0 1016.8 -0.1 79
2017-11-24 05:00:00 12.3 3 Noroeste 14 Norte 0 1016.7 -0.2 78
2017-11-24 04:00:00 12.3 2 Nordeste 10 Norte 0 1016.6 -0.6 75
2017-11-24 03:00:00 12.5 2 Norte 6 Nordeste 0 1016.9 -0.5 77
2017-11-24 02:00:00 12.3 0 Calma 9 Norte 0 1016.9 -0.5 73
2017-11-24 01:00:00 13.9 5 Norte 9 Norte 0 1017.2 0 72
2017-11-24 00:00:00 13.2 0 Calma 9 Nordeste 0 1017.4 0.2 65
2017-11-23 23:00:00 14.5 3 Nordeste 10 Norte 0 1017.4 0.4 63
2017-11-23 22:00:00 15.2 7 Nordeste 13 Nordeste 0 1017.2 0.6 61
2017-11-23 21:00:00 15.5 5 Nordeste 11 Nordeste 0 1017.2 1 63
2017-11-23 20:00:00 14.1 0 Calma 6 Nordeste 0 1017 1.1 70
2017-11-23 19:00:00 16.4 5 Nordeste 8 Nordeste 0 1016.6 1 70
2017-11-23 18:00:00 17.8 3 Noroeste 9 Sudoeste 0 1016.2 0.6 69
2017-11-23 17:00:00 19.4 4 Sudoeste 13 Sur 0 1015.9 0 59
2017-11-23 16:00:00 20.1 6 Sudoeste 16 Sudoeste 0 1015.6 -0.5 52
2017-11-23 15:00:00 20.5 9 Sur 15 Sur 0 1015.6 -0.9 35
2017-11-23 14:00:00 20.1 9 Sur 15 Sur 0 1015.9 -0.7 36
2017-11-23 13:00:00 20.4 7 Sur 11 Sur 0 1016.1 0 48
2017-11-23 12:00:00 20.4 5 Sur 10 Sudeste 0 1016.5 1.1 46
2017-11-23 11:00:00 19.5 5 Sur 9 Sur 0 1016.6 2 50
2017-11-23 10:00:00 18.5 3 Sudeste 6 Sudeste 0 1016.1 2.3 59
2017-11-23 09:00:00 13.6 3 Norte 12 Nordeste 0 1015.4 2.1 64
2017-11-23 08:00:00 11.2 5 Nordeste 11 Nordeste 0 1014.6 1.8 64
2017-11-23 07:00:00 11.4 6 Nordeste 14 Nordeste 0 1013.8 0.9 63
2017-11-23 06:00:00 9.9 5 Norte 11 Nordeste 0 1013.3 0.5 69
2017-11-23 05:00:00 11.2 6 Nordeste 11 Nordeste 0 1012.8 -0.1 73
2017-11-23 04:00:00 10.9 4 Nordeste 12 Nordeste 0 1012.9 0.4 70
2017-11-23 03:00:00 11.3 3 Norte 11 Nordeste 0 1012.8 0.2 73
2017-11-23 02:00:00 11.3 4 Nordeste 10 Norte 0 1012.9 0.3 72
2017-11-23 01:00:00 10.6 4 Este 12 Noroeste 0 1012.5 0 74
2017-11-23 00:00:00 11.3 4 Noroeste 13 Noroeste 0 1012.6 0.2 77
2017-11-22 23:00:00 12.1 6 Norte 10 Norte 0 1012.6 0.2 78
2017-11-22 22:00:00 12.5 6 Norte 10 Norte 0 1012.5 0.4 78
2017-11-22 21:00:00 13.1 6 Norte 9 Norte 0 1012.4 0.4 76
2017-11-22 20:00:00 14.2 8 Norte 12 Norte 0 1012.4 0.5 74
2017-11-22 19:00:00 15.2 7 Norte 12 Norte 0 1012.1 0.3 69
2017-11-22 18:00:00 17.2 3 Sur 7 Sudoeste 0 1012 0 64
2017-11-22 17:00:00 18.6 3 Sur 12 Sudeste 0 1011.9 -0.7 60
2017-11-22 16:00:00 19.3 5 Sur 14 Sur 0 1011.8 -1.3 57
2017-11-22 15:00:00 19.3 9 Sur 14 Sur 0 1012 -1.7 55
2017-11-22 14:00:00 19.5 7 Sur 15 Sudoeste 0 1012.6 -1.8 56
2017-11-22 13:00:00 19.5 8 Sur 14 Sur 0 1013.1 -1.2 60
2017-11-22 12:00:00 17.9 4 Sudeste 10 Sur 0 1013.7 -0.4 66
2017-11-22 11:00:00 18.6 5 Sudeste 10 Sudeste 0 1014.4 0.7 62
2017-11-22 10:00:00 17.4 2 Sudoeste 8 Norte 0 1014.3 0.7 66
2017-11-22 09:00:00 11.7 5 Norte 7 Norte 0 1014.1 0.4 79
2017-11-22 08:00:00 10.3 2 Norte 9 Nordeste 0 1013.7 -0.2 80
2017-11-22 07:00:00 10.7 3 Norte 9 Norte 0 1013.6 -0.6 79
2017-11-22 06:00:00 10.5 3 Norte 9 Nordeste 0 1013.7 -1.2 76
2017-11-22 05:00:00 10.4 2 Nordeste 6 Nordeste 0 1013.9 -1.4 73
2017-11-22 04:00:00 11 3 Nordeste 12 Nordeste 0 1014.2 -1.4 70
2017-11-22 03:00:00 12.7 6 Nordeste 12 Nordeste 0 1014.9 -0.9 66
2017-11-22 02:00:00 12.1 4 Nordeste 13 Nordeste 0 1015.3 -0.5 64
2017-11-22 01:00:00 13.2 10 Nordeste 13 Nordeste 0 1015.6 -0.4 54
2017-11-22 00:00:00 12.2 8 Norte 10 Nordeste 0 1015.8 -0.7 58
2017-11-21 23:00:00 11.7 6 Norte 11 Norte 0 1015.8 -1 65
2017-11-21 22:00:00 11.4 3 Noroeste 9 Norte 0 1016 -0.7 68
2017-11-21 21:00:00 12.5 6 Norte 10 Norte 0 1016.5 0.1 63
2017-11-21 20:00:00 13.3 6 Norte 9 Norte 0 1016.8 0.5 66
2017-11-21 19:00:00 15.6 3 Nordeste 9 Norte 0 1016.7 0.1 64
2017-11-21 18:00:00 18.1 2 Sudoeste 8 Sur 0 1016.4 -0.5 57
2017-11-21 17:00:00 19.7 4 Sur 12 Sur 0 1016.3 -1 49
2017-11-21 16:00:00 19.8 7 Sudeste 14 Sudeste 0 1016.6 -1.5 52
2017-11-21 15:00:00 20.1 7 Sudeste 14 Sur 0 1016.9 -1.9 53
2017-11-21 14:00:00 20 7 Sur 16 Sudeste 0 1017.3 -1.7 56
2017-11-21 13:00:00 20 8 Sur 14 Sur 0 1018.1 -0.6 59
2017-11-21 12:00:00 19.4 7 Sur 11 Sudeste 0 1018.8 0.3 56
2017-11-21 11:00:00 19.2 3 Sudeste 8 Sur 0 1019 0.9 63
2017-11-21 10:00:00 17.9 2 Sudeste 8 Nordeste 0.2 1018.7 0.6 74
2017-11-21 09:00:00 14.1 4 Nordeste 11 Nordeste 0 1018.5 0.1 84
2017-11-21 08:00:00 10.5 4 Nordeste 8 Nordeste 0 1018.1 -0.3 86
2017-11-21 07:00:00 11.2 0 Calma 10 Nordeste 0 1018.1 -0.6 85
2017-11-21 06:00:00 11.7 4 Nordeste 11 Nordeste 0 1018.4 -0.7 85
2017-11-21 05:00:00 10.9 2 Nordeste 9 Nordeste 0 1018.4 -0.5 82
2017-11-21 04:00:00 12 2 Noroeste 11 Norte 0 1018.7 -0.5 81
2017-11-21 03:00:00 11.2 3 Norte 7 Norte 0 1019.1 -0.1 81
2017-11-21 02:00:00 11.1 0 Calma 8 Nordeste 0 1018.9 -0.6 78
2017-11-21 01:00:00 11.6 3 Norte 7 Nordeste 0 1019.2 -0.3 78
2017-11-21 00:00:00 11.9 3 Norte 8 Norte 0 1019.2 -0.3 76
2017-11-20 23:00:00 12.5 6 Norte 9 Norte 0 1019.5 0.2 75
2017-11-20 22:00:00 13 4 Nordeste 10 Norte 0 1019.5 0.6 75
2017-11-20 21:00:00 13.5 3 Norte 9 Norte 0 1019.5 1 75
2017-11-20 20:00:00 14.4 3 Norte 8 Norte 0 1019.3 0.9 76
2017-11-20 19:00:00 15.8 5 Norte 8 Norte 0 1018.9 0.4 75
2017-11-20 18:00:00 17.7 3 Sudoeste 9 Sur 0 1018.5 -0.3 70
2017-11-20 17:00:00 19.1 5 Sur 13 Sudoeste 0 1018.4 -1 63
2017-11-20 16:00:00 19.6 5 Sudoeste 13 Sudeste 0 1018.5 -1.5 61
2017-11-20 15:00:00 19.5 7 Sur 15 Sudeste 0 1018.8 -1.8 62
2017-11-20 14:00:00 19.6 8 Sur 15 Sur 0 1019.4 -1.4 57
2017-11-20 13:00:00 19.4 7 Sudeste 16 Sudeste 0 1020 -0.7 58
2017-11-20 12:00:00 19.2 7 Sur 12 Sur 0 1020.6 0.4 62
2017-11-20 11:00:00 19.1 4 Sur 8 Sur 0 1020.8 1.1 64
2017-11-20 10:00:00 16.8 3 Noroeste 6 Oeste 0 1020.7 1.5 79
2017-11-20 09:00:00 12.8 5 Nordeste 12 Norte 0 1020.2 1.3 84
2017-11-20 08:00:00 11.9 6 Norte 11 Nordeste 0 1019.7 1.2 84
2017-11-20 07:00:00 11.6 0 Calma 8 Norte 0 1019.2 0.6 83
2017-11-20 06:00:00 11.5 3 Norte 8 Nordeste 0 1018.9 0.1 82
2017-11-20 05:00:00 12.4 3 Nordeste 12 Nordeste 0 1018.5 -0.3 79
2017-11-20 04:00:00 13.1 7 Nordeste 12 Norte 0 1018.6 -0.5 79
2017-11-20 03:00:00 12.4 5 Nordeste 10 Nordeste 0 1018.8 -0.5 80
2017-11-20 02:00:00 10.9 0 Calma 5 Norte 0 1018.8 -0.3 79
2017-11-20 01:00:00 11.2 3 Noroeste 6 Norte 0 1019.1 -0.1 80
2017-11-20 00:00:00 11.7 2 Norte 8 Norte 0 1019.3 0.6 80
2017-11-19 23:00:00 12.1 2 Norte 6 Norte 0 1019.1 0.8 79
2017-11-19 22:00:00 12.7 0 Calma 5 Norte 0 1019.2 1.1 79
2017-11-19 21:00:00 13.7 0 Calma 8 Nordeste 0 1018.7 1.2 77
2017-11-19 20:00:00 15 5 Nordeste 9 Nordeste 0 1018.3 1.2 74
2017-11-19 19:00:00 16.1 5 Norte 7 Norte 0 1018.1 1.1 71
2017-11-19 18:00:00 17.7 3 Sur 10 Sur 0 1017.5 0.4 66
2017-11-19 17:00:00 18.9 5 Sudeste 12 Sur 0 1017.1 -0.5 61
2017-11-19 16:00:00 19.5 7 Sur 15 Sur 0 1017 -1.1 57
2017-11-19 15:00:00 19.7 8 Sudeste 15 Sudeste 0 1017.1 -1.7 56
2017-11-19 14:00:00 19.7 9 Sur 15 Sur 0 1017.6 -1.4 52
2017-11-19 13:00:00 19.4 8 Sur 17 Sur 0 1018.1 -0.7 53
2017-11-19 12:00:00 19.3 11 Sudeste 18 Sudeste 0 1018.8 0.5 53
2017-11-19 11:00:00 19.3 7 Sudeste 16 Sudeste 0 1019 1.2 55
2017-11-19 10:00:00 18 2 Sudeste 12 Sudeste 0 1018.8 1.6 67
2017-11-19 09:00:00 13.4 3 Noroeste 8 Norte 0 1018.3 1.3 83
2017-11-19 08:00:00 10.6 5 Norte 8 Norte 0 1017.8 1 83
2017-11-19 07:00:00 10.1 3 Norte 5 Noroeste 0 1017.2 0.2 83
2017-11-19 06:00:00 10.8 4 Norte 7 Noroeste 0 1017 -0.1 84
2017-11-19 05:00:00 10.5 0 Calma 7 Norte 0 1016.8 -0.1 83
2017-11-19 04:00:00 11.1 0 Calma 7 Norte 0 1017 -0.2 83
2017-11-19 03:00:00 11.1 0 Calma 6 Norte 0 1017.1 -0.1 83
2017-11-19 02:00:00 11.5 3 Norte 6 Norte 0 1016.9 -0.3 83
2017-11-19 01:00:00 12 3 Norte 7 Norte 0 1017.2 0 82
2017-11-19 00:00:00 11.9 2 Norte 6 Nordeste 0 1017.2 0.4 81
2017-11-18 23:00:00 12.8 3 Nordeste 8 Norte 0 1017.2 0.8 81
2017-11-18 22:00:00 12.8 2 Norte 4 Nordeste 0 1017.2 1 79
2017-11-18 21:00:00 13.4 2 Nordeste 5 Nordeste 0 1016.8 1 77
2017-11-18 20:00:00 14.4 4 Nordeste 8 Nordeste 0 1016.4 0.8 72
2017-11-18 19:00:00 16 4 Nordeste 6 Nordeste 0 1016.2 0.8 69
2017-11-18 18:00:00 17 3 Sudeste 11 Sudeste 0 1015.8 0.5 65
2017-11-18 17:00:00 18.5 5 Sur 16 Sur 0 1015.6 -0.2 60
2017-11-18 16:00:00 18.9 7 Sur 15 Sudeste 0 1015.4 -0.9 61
2017-11-18 15:00:00 18.9 7 Sur 18 Sudeste 0 1015.3 -1.6 60
2017-11-18 14:00:00 18.8 9 Sudeste 18 Sudeste 0 1015.8 -1.2 62
2017-11-18 13:00:00 19 8 Sur 15 Sudoeste 0 1016.3 -0.5 61
2017-11-18 12:00:00 18.6 7 Sur 15 Sudoeste 0 1016.9 0.3 62
2017-11-18 11:00:00 18.9 7 Sur 12 Sur 0 1017 0.8 60
2017-11-18 10:00:00 17.7 2 Sudoeste 7 Noroeste 0 1016.8 0.8 68
2017-11-18 09:00:00 13.8 0 Calma 7 Norte 0 1016.6 0.7 83
2017-11-18 08:00:00 12 3 Nordeste 9 Norte 0 1016.2 0.3 82
2017-11-18 07:00:00 11.4 4 Norte 10 Nordeste 0 1016 0 80
2017-11-18 06:00:00 11.3 7 Norte 11 Norte 0 1015.9 -0.1 80
2017-11-18 05:00:00 11.4 2 Nordeste 10 Nordeste 0 1015.9 -0.2 76
2017-11-18 04:00:00 12.9 6 Nordeste 12 Nordeste 0 1016 -0.5 75
2017-11-18 03:00:00 11.9 3 Nordeste 11 Nordeste 0 1016 -0.6 76
2017-11-18 02:00:00 12.1 8 Nordeste 12 Nordeste 0 1016.1 -0.5 79
2017-11-18 01:00:00 11.3 3 Nordeste 9 Noroeste 0 1016.5 0.1 80
2017-11-18 00:00:00 11.9 4 Noroeste 7 Norte 0 1016.6 0.1 80
2017-11-17 23:00:00 12.3 2 Norte 8 Norte 0 1016.6 0.2 78
2017-11-17 22:00:00 12.8 3 Norte 8 Norte 0 1016.4 0.3 76
2017-11-17 21:00:00 13.6 2 Norte 8 Norte 0 1016.5 0.7 72
2017-11-17 20:00:00 14.5 4 Norte 10 Norte 0 1016.4 0.9 70
2017-11-17 19:00:00 15.5 3 Norte 7 Sudeste 0 1016.1 0.5 66
2017-11-17 18:00:00 17.1 3 Sudeste 11 Sur 0 1015.8 0 61
2017-11-17 17:00:00 18.4 5 Sur 14 Sudeste 0 1015.5 -0.8 58
2017-11-17 16:00:00 18.9 7 Sur 15 Sudeste 0 1015.6 -1.2 60
2017-11-17 15:00:00 18.9 9 Sur 16 Sudeste 0 1015.8 -1.6 59
2017-11-17 14:00:00 19.1 8 Sur 17 Sur 0 1016.3 -1.3 58
2017-11-17 13:00:00 18.9 10 Sur 19 Sur 0 1016.8 -0.7 57
2017-11-17 12:00:00 18.7 9 Sur 13 Sudoeste 0 1017.4 0.1 56
2017-11-17 11:00:00 18.6 5 Sur 12 Sur 0 1017.6 0.7 57
2017-11-17 10:00:00 16.9 4 Noroeste 10 Noroeste 0 1017.5 0.9 68
2017-11-17 09:00:00 13.5 2 Nordeste 7 Nordeste 0 1017.3 0.7 81
2017-11-17 08:00:00 10.9 0 Calma 10 Nordeste 0 1016.9 0.2 80
2017-11-17 07:00:00 11.6 6 Norte 11 Norte 0 1016.6 -0.1 80
2017-11-17 06:00:00 10.9 6 Norte 9 Norte 0 1016.6 -0.2 80
2017-11-17 05:00:00 10.6 3 Nordeste 8 Nordeste 0 1016.7 -0.3 79
2017-11-17 04:00:00 10.2 2 Nordeste 8 Norte 0 1016.7 -0.7 78
2017-11-17 03:00:00 10.4 6 Norte 9 Nordeste 0 1016.8 -1 78
2017-11-17 02:00:00 11.2 4 Norte 7 Noroeste 0 1017 -0.6 78
2017-11-17 01:00:00 11.8 4 Norte 9 Nordeste 0 1017.4 -0.1 77
2017-11-17 00:00:00 11.7 3 Noroeste 7 Nordeste 0 1017.8 0.7 76
2017-11-16 23:00:00 12.5 3 Norte 8 Nordeste 0 1017.6 0.7 73
2017-11-16 22:00:00 12.5 5 Norte 9 Norte 0 1017.5 0.8 73
2017-11-16 21:00:00 12.9 0 Calma 8 Nordeste 0 1017.1 0.8 70
2017-11-16 20:00:00 14.7 3 Nordeste 8 Norte 0 1016.9 1 65
2017-11-16 19:00:00 15.6 3 Nordeste 7 Sudeste 0 1016.7 1 62
2017-11-16 18:00:00 16.7 5 Sudeste 12 Sudeste 0 1016.3 0.6 58
2017-11-16 17:00:00 17.9 6 Sudeste 14 Sur 0 1015.9 0.1 58
2017-11-16 16:00:00 18.5 7 Sur 17 Sur 0 1015.7 -0.7 58
2017-11-16 15:00:00 18.7 8 Sur 19 Sur 0 1015.7 -1.1 54
2017-11-16 14:00:00 18.7 9 Sur 18 Sur 0 1015.8 -1.2 55
2017-11-16 13:00:00 18.6 8 Sur 17 Sur 0 1016.4 -0.5 53
2017-11-16 12:00:00 18.5 8 Sur 15 Sur 0 1016.8 0.3 51
2017-11-16 11:00:00 18.2 6 Sur 10 Sur 0 1017 1 50
2017-11-16 10:00:00 17.6 3 Sur 5 Sur 0 1016.9 1.4 53
2017-11-16 09:00:00 13 0 Calma 10 Nordeste 0 1016.5 1.1 82
2017-11-16 08:00:00 9.9 2 Nordeste 7 Norte 0 1016 1 83
2017-11-16 07:00:00 9.9 4 Norte 8 Noroeste 0 1015.5 0.4 82
2017-11-16 06:00:00 10.5 5 Norte 8 Noroeste 0 1015.4 0.1 82
2017-11-16 05:00:00 10.6 4 Noroeste 6 Noroeste 0 1015 -0.3 80
2017-11-16 04:00:00 10.7 0 Calma 8 Nordeste 0 1015.1 -0.5 77
2017-11-16 03:00:00 11 3 Norte 8 Nordeste 0 1015.3 -0.3 76
2017-11-16 02:00:00 11.3 2 Norte 10 Nordeste 0 1015.3 -0.5 75
2017-11-16 01:00:00 11.7 4 Nordeste 10 Nordeste 0 1015.6 -0.1 75
2017-11-16 00:00:00 11.6 3 Norte 7 Noroeste 0 1015.6 0 73
2017-11-15 23:00:00 12.2 0 Calma 9 Norte 0 1015.8 0.4 69
2017-11-15 22:00:00 13.1 4 Norte 10 Norte 0 1015.7 0.5 66
2017-11-15 21:00:00 13.1 5 Norte 10 Norte 0 1015.6 0.7 65
2017-11-15 20:00:00 14 5 Norte 10 Nordeste 0 1015.4 0.7 60
2017-11-15 19:00:00 15 7 Norte 9 Norte 0 1015.2 0.2 57
2017-11-15 18:00:00 17 4 Sudoeste 13 Sudoeste 0 1014.9 -0.3 49
2017-11-15 17:00:00 18.1 6 Sur 18 Sur 0 1014.7 -1.1 45
2017-11-15 16:00:00 18.9 8 Sudoeste 21 Sudoeste 0 1015 -1.5 43
2017-11-15 15:00:00 18.7 11 Sur 20 Sur 0 1015.2 -2.2 42
2017-11-15 14:00:00 18.8 10 Sur 20 Sudoeste 0 1015.8 -2.1 41
2017-11-15 13:00:00 18.9 9 Sur 18 Sur 0 1016.5 -1.3 43
2017-11-15 12:00:00 18.4 10 Sur 15 Sudoeste 0 1017.4 -0.3 43
2017-11-15 11:00:00 18.4 7 Sur 12 Sur 0 1017.9 0.5 44
2017-11-15 10:00:00 17.1 4 Oeste 9 Oeste 0 1017.8 0.8 47
2017-11-15 09:00:00 13.5 0 Calma 8 Norte 0 1017.7 0.8 59
2017-11-15 08:00:00 10.7 4 Norte 9 Norte 0 1017.4 0.8 62
2017-11-15 07:00:00 10.7 4 Norte 10 Nordeste 0 1017 0.1 61
2017-11-15 06:00:00 11.1 4 Norte 10 Nordeste 0 1016.9 -0.3 65
2017-11-15 05:00:00 10.9 6 Norte 12 Norte 0 1016.6 -0.6 65
2017-11-15 04:00:00 10.3 5 Norte 9 Norte 0 1016.9 -0.2 63
2017-11-15 03:00:00 10.8 6 Norte 9 Norte 0 1017.2 0 59
2017-11-15 02:00:00 10.3 3 Norte 7 Noroeste 0 1017.2 0 68
2017-11-15 01:00:00 10.7 0 Calma 10 Nordeste 0 1017.1 0 64
2017-11-15 00:00:00 10.4 2 Norte 7 Noroeste 0 1017.2 0.6 62
2017-11-14 23:00:00 12 3 Nordeste 8 Nordeste 0 1017.2 1.3 53
2017-11-14 22:00:00 11 4 Norte 9 Norte 0 1017.1 1.7 53
2017-11-14 21:00:00 12.7 4 Nordeste 11 Nordeste 0 1016.6 2 43
2017-11-14 20:00:00 12.2 0 Calma 9 Nordeste 0 1015.9 1.7 39
2017-11-14 19:00:00 13.6 4 Nordeste 9 Nordeste 0 1015.4 1.4 36
2017-11-14 18:00:00 16 3 Sudeste 12 Sur 0 1014.6 0.6 30
2017-11-14 17:00:00 17.2 6 Sudeste 18 Sur 0 1014.2 -0.1 26
2017-11-14 16:00:00 17.7 10 Sudeste 22 Sudeste 0 1014 -0.9 23
2017-11-14 15:00:00 17.6 11 Sudeste 22 Este 0 1014 -1.3 24
2017-11-14 14:00:00 17.4 11 Sudeste 23 Sudeste 0 1014.3 -1.1 20
2017-11-14 13:00:00 17.3 12 Sudeste 24 Sudeste 0 1014.9 -0.5 21
2017-11-14 12:00:00 17 5 Sur 15 Sur 0 1015.3 0.1 21
2017-11-14 11:00:00 16.1 8 Sur 14 Sur 0 1015.4 1 18
2017-11-14 10:00:00 15.4 7 Noroeste 15 Noroeste 0 1015.4 1.4 19
2017-11-14 09:00:00 13.7 4 Oeste 7 Noroeste 0 1015.2 1.6 22
2017-11-14 08:00:00 10.7 4 Norte 22 Noroeste 0 1014.4 1 25
2017-11-14 07:00:00 11.3 8 Norte 32 Noroeste 0 1014 0.5 23
2017-11-14 06:00:00 11 8 Noroeste 14 Noroeste 0 1013.6 0.2 25
2017-11-14 05:00:00 11.4 12 Noroeste 23 Noroeste 0 1013.4 0.2 24
2017-11-14 04:00:00 10.5 2 Norte 7 Nordeste 0 1013.5 0.3 28
2017-11-14 03:00:00 11.4 4 Norte 11 Norte 0 1013.4 0.1 27
2017-11-14 02:00:00 13.3 5 Norte 19 Norte 0 1013.2 -0.2 22
2017-11-14 01:00:00 15 5 Nordeste 19 Norte 0 1013.2 0 20
2017-11-14 00:00:00 15.7 5 Este 18 Este 0 1013.3 0.2 19
2017-11-13 23:00:00 16.1 8 Este 30 Nordeste 0 1013.4 0.7 21
2017-11-13 22:00:00 17.1 14 Nordeste 31 Nordeste 0 1013.2 1.2 21
2017-11-13 21:00:00 16.8 8 Nordeste 20 Nordeste 0 1013.1 2.4 24
2017-11-13 20:00:00 17.5 13 Este 27 Este 0 1012.7 2.6 23
2017-11-13 19:00:00 18.6 15 Este 27 Nordeste 0 1012 2.7 22
2017-11-13 18:00:00 19.9 7 Oeste 22 Sudoeste 0 1010.7 1.2 40
2017-11-13 17:00:00 21.6 13 Sudoeste 30 Sur 0 1010.1 0.5 33
2017-11-13 16:00:00 23.8 10 Sudoeste 28 Oeste 0 1009.3 -1 27
2017-11-13 15:00:00 24.3 8 Sudoeste 21 Sudoeste 0 1009.5 -1.3 21
2017-11-13 14:00:00 23.6 8 Sudoeste 30 Sur 0 1009.6 -1.5 22
2017-11-13 13:00:00 22.2 17 Sudeste 32 Sudeste 0 1010.3 -1.1 30
2017-11-13 12:00:00 23.3 12 Sudeste 33 Norte 0 1010.8 -0.3 20
2017-11-13 11:00:00 22.5 16 Norte 32 Norte 0 1011.1 0.1 17
2017-11-13 10:00:00 20.4 7 Sudoeste 18 Oeste 0 1011.4 0.9 27
2017-11-13 09:00:00 17.2 4 Sudoeste 14 Sudoeste 0 1011.1 0.3 33
2017-11-13 08:00:00 14.9 5 Oeste 23 Sudoeste 0 1011 0.2 38
2017-11-13 07:00:00 14.3 4 Sudoeste 19 Oeste 0 1010.5 -0.6 38
2017-11-13 06:00:00 14.7 5 Oeste 12 Sudoeste 0 1010.8 -0.8 36
2017-11-13 05:00:00 14.5 3 Oeste 10 Sudoeste 0 1010.8 -1.3 35
2017-11-13 04:00:00 13.5 6 Oeste 12 Noroeste 0 1011.1 -1.3 38
2017-11-13 03:00:00 13.8 2 Este 12 Oeste 0 1011.6 -1.3 36
2017-11-13 02:00:00 14.2 4 Sur 10 Sudoeste 0 1012.1 -0.8 36
2017-11-13 01:00:00 15.1 0 Calma 6 Norte 0 1012.4 -0.4 32
2017-11-13 00:00:00 16.6 5 Sudoeste 24 Noroeste 0 1012.9 0 30
2017-11-12 23:00:00 17.3 10 Noroeste 24 Noroeste 0 1012.9 -0.1 32
2017-11-12 22:00:00 18.6 13 Norte 22 Norte 0 1012.8 0 29
2017-11-12 21:00:00 15.1 3 Nordeste 10 Nordeste 0 1012.9 0.4 42
2017-11-12 20:00:00 15.9 2 Nordeste 11 Norte 0 1013 0.3 46
2017-11-12 19:00:00 18 6 Nordeste 8 Nordeste 0 1012.8 -0.2 59
2017-11-12 18:00:00 20.1 5 Este 8 Sudoeste 0 1012.5 -1.1 57
2017-11-12 17:00:00 21.4 6 Sudoeste 14 Sur 0 1012.7 -1.6 55
2017-11-12 16:00:00 22.4 6 Sur 19 Sur 0 1013 -2.1 47
2017-11-12 15:00:00 22.5 7 Sudoeste 18 Sur 0 1013.6 -2.2 47
2017-11-12 14:00:00 22.6 7 Sudoeste 15 Sur 0 1014.3 -2.1 32
2017-11-12 13:00:00 21.8 7 Sudoeste 19 Sur 0 1015.1 -1.7 40
2017-11-12 12:00:00 21.9 6 Sur 12 Sur 0 1015.8 -1.1 30
2017-11-12 11:00:00 21 6 Sur 10 Sur 0 1016.4 -0.3 31
2017-11-12 10:00:00 19.9 5 Sudeste 10 Este 0 1016.8 0.1 32
2017-11-12 09:00:00 16.2 0 Calma 6 Nordeste 0 1016.9 0 42
2017-11-12 08:00:00 11.6 2 Noroeste 10 Norte 0 1016.7 0 56
2017-11-12 07:00:00 12.1 5 Norte 10 Norte 0 1016.7 -0.4 55
2017-11-12 06:00:00 13 4 Noroeste 11 Noroeste 0 1016.9 -0.5 50
2017-11-12 05:00:00 14.6 7 Noroeste 20 Norte 0 1016.7 -1 46
2017-11-12 04:00:00 14 5 Noroeste 20 Noroeste 0 1017.1 -1.1 48
2017-11-12 03:00:00 14.4 11 Noroeste 20 Noroeste 0 1017.4 -1.6 48
2017-11-12 02:00:00 13.8 7 Oeste 15 Noroeste 0 1017.7 -1.9 50
2017-11-12 01:00:00 13.3 7 Noroeste 12 Noroeste 0 1018.2 -1.8 54
2017-11-12 00:00:00 13.7 6 Oeste 13 Noroeste 0 1019 -1.1 52
2017-11-11 23:00:00 13.3 3 Noroeste 9 Noroeste 0 1019.6 -0.6 55
2017-11-11 22:00:00 13.8 3 Norte 10 Norte 0 1020 -0.2 53
2017-11-11 21:00:00 14.6 4 Noroeste 12 Norte 0 1020.1 0.1 60
2017-11-11 20:00:00 16.3 5 Norte 10 Nordeste 0 1020.2 0.3 57
2017-11-11 19:00:00 17.2 6 Norte 9 Norte 0 1020.2 0.4 53
2017-11-11 18:00:00 19 4 Sudoeste 13 Sudoeste 0 1020 0.1 47
2017-11-11 17:00:00 20.3 7 Sudoeste 15 Sudoeste 0 1019.9 -0.2 39
2017-11-11 16:00:00 20.6 9 Sur 23 Sur 0 1019.8 -0.9 39
2017-11-11 15:00:00 20.8 11 Sur 23 Sur 0 1019.9 -1.3 38
2017-11-11 14:00:00 20.7 13 Sur 27 Sudeste 0 1020.1 -1.4 33
2017-11-11 13:00:00 21 19 Sudeste 29 Sudeste 0 1020.7 -1 36
2017-11-11 12:00:00 21.4 12 Norte 30 Norte 0 1021.2 -0.7 25
2017-11-11 11:00:00 20.4 9 Norte 23 Noroeste 0 1021.5 0 28
2017-11-11 10:00:00 19.3 6 Sudoeste 17 Sudoeste 0 1021.7 0.4 32
2017-11-11 09:00:00 17.5 5 Oeste 12 Noroeste 0 1021.9 0.8 36
2017-11-11 08:00:00 13.4 4 Sudoeste 10 Sudoeste 0 1021.5 0.2 46
2017-11-11 07:00:00 14.2 8 Sudoeste 14 Sur 0 1021.3 0 43
2017-11-11 06:00:00 13.5 4 Oeste 15 Oeste 0 1021.1 -0.2 44
2017-11-11 05:00:00 13.3 4 Sur 12 Oeste 0 1021.3 -0.4 44
2017-11-11 04:00:00 15.3 5 Norte 21 Norte 0 1021.3 -0.9 37
2017-11-11 03:00:00 15.5 11 Noroeste 19 Norte 0 1021.3 -0.9 37
2017-11-11 02:00:00 15.6 9 Norte 20 Norte 0 1021.7 -0.5 36
2017-11-11 01:00:00 15.6 9 Norte 18 Norte 0 1022.2 -0.4 35
2017-11-11 00:00:00 13.3 4 Norte 12 Noroeste 0 1022.2 -0.5 41
2017-11-10 23:00:00 13 5 Norte 13 Noroeste 0 1022.2 -0.6 43
2017-11-10 22:00:00 12.6 7 Noroeste 17 Noroeste 0 1022.6 -0.1 47
2017-11-10 21:00:00 13.2 6 Noroeste 14 Norte 0 1022.7 0.6 48
2017-11-10 20:00:00 14.2 6 Noroeste 13 Norte 0 1022.8 1.2 44
2017-11-10 19:00:00 15.1 6 Noroeste 11 Noroeste 0 1022.7 1.3 44
2017-11-10 18:00:00 17.4 6 Oeste 11 Sudoeste 0 1022.1 1 33
2017-11-10 17:00:00 18.8 7 Sur 17 Sudoeste 0 1021.6 0.1 29
2017-11-10 16:00:00 19.1 7 Sur 17 Sur 0 1021.4 -0.6 27
2017-11-10 15:00:00 19.3 9 Sur 19 Sudeste 0 1021.1 -1.2 27
2017-11-10 14:00:00 18.9 10 Sur 21 Sudeste 0 1021.5 -0.8 26
2017-11-10 13:00:00 19.1 9 Sur 25 Norte 0 1022 0.1 28
2017-11-10 12:00:00 18.3 12 Noroeste 30 Norte 0 1022.3 0.6 25
2017-11-10 11:00:00 16.6 19 Norte 31 Norte 0 1022.3 0.9 28
2017-11-10 10:00:00 14.9 15 Norte 37 Norte 0 1021.9 1.1 31
2017-11-10 09:00:00 13.4 13 Norte 41 Norte 0 1021.7 1.2 33
2017-11-10 08:00:00 12 19 Norte 49 Norte 0 1021.4 1.1 37
2017-11-10 07:00:00 12.3 19 Norte 43 Noroeste 0 1020.8 0.3 36
2017-11-10 06:00:00 12.5 12 Noroeste 40 Norte 0 1020.5 0.2 35
2017-11-10 05:00:00 13.1 14 Norte 33 Norte 0 1020.3 -0.2 33
2017-11-10 04:00:00 13.7 6 Nordeste 26 Norte 0 1020.5 0 32
2017-11-10 03:00:00 13.7 13 Norte 24 Norte 0 1020.3 -0.5 32
2017-11-10 02:00:00 13.5 11 Noroeste 24 Norte 0 1020.5 -0.2 33
2017-11-10 01:00:00 13.3 4 Norte 14 Norte 0 1020.5 -0.1 34
2017-11-10 00:00:00 11.3 4 Noroeste 9 Noroeste 0 1020.8 0.7 42
2017-11-09 23:00:00 12.4 4 Noroeste 13 Norte 0 1020.7 0.8 37
2017-11-09 22:00:00 12.5 3 Norte 12 Norte 0 1020.6 1.7 36
2017-11-09 21:00:00 12.9 5 Norte 16 Noroeste 0 1020.1 1.6 35
2017-11-09 20:00:00 12.8 8 Noroeste 13 Noroeste 0 1019.9 1.7 37
2017-11-09 19:00:00 15.1 6 Nordeste 13 Este 0 1018.9 0.9 29
2017-11-09 18:00:00 16.7 9 Este 24 Este 0 1018.5 0.4 27
2017-11-09 17:00:00 18 13 Este 35 Este 0 1018.2 0 22
2017-11-09 16:00:00 20.2 12 Este 30 Sudeste 0 1018 -0.8 19
2017-11-09 15:00:00 18.8 19 Sudeste 35 Este 0 1018.1 -1.2 21
2017-11-09 14:00:00 19.7 18 Este 35 Este 0 1018.2 -1.1 18
2017-11-09 13:00:00 19.3 19 Sudeste 32 Sudeste 0 1018.8 -0.3 19
2017-11-09 12:00:00 18.5 8 Sur 27 Norte 0 1019.3 0.2 22
2017-11-09 11:00:00 17.1 11 Norte 28 Norte 0 1019.3 1.3 21
2017-11-09 10:00:00 15.6 21 Norte 38 Norte 0 1019.1 1.9 24
2017-11-09 09:00:00 15.5 9 Norte 22 Norte 0 1019.1 2.5 23
2017-11-09 08:00:00 14.6 4 Sudoeste 30 Nordeste 0 1018 1.7 27
2017-11-09 07:00:00 15 9 Nordeste 50 Norte 0 1017.2 1.1 26
2017-11-09 06:00:00 15.2 22 Norte 42 Norte 0 1016.6 0.6 28
2017-11-09 05:00:00 16.2 23 Norte 53 Norte 0 1016.3 0.2 26
2017-11-09 04:00:00 16.7 24 Norte 47 Norte 0 1016.1 -0.3 25
2017-11-09 03:00:00 17.3 22 Norte 45 Norte 0 1016 -0.9 24
2017-11-09 02:00:00 16.9 12 Norte 27 Norte 0 1016.1 -0.8 25
2017-11-09 01:00:00 16.1 8 Noroeste 17 Norte 0 1016.4 -0.1 39
2017-11-09 00:00:00 16.3 5 Norte 16 Este 0 1016.9 0.5 44
2017-11-08 23:00:00 14.7 5 Nordeste 14 Nordeste 0 1016.9 0.7 60
2017-11-08 22:00:00 14.9 5 Norte 11 Norte 0 1016.5 0.7 64
2017-11-08 21:00:00 16.2 6 Nordeste 12 Norte 0 1016.4 0.9 60
2017-11-08 20:00:00 16.6 5 Nordeste 8 Nordeste 0 1016.2 1 58
2017-11-08 19:00:00 17.7 2 Nordeste 10 Sur 0 1015.8 0.6 55
2017-11-08 18:00:00 19.1 5 Sur 14 Sudoeste 0 1015.5 0 50
2017-11-08 17:00:00 20.4 7 Sudoeste 17 Sur 0 1015.2 -0.3 41
2017-11-08 16:00:00 21.1 9 Sur 19 Sudeste 0 1015.2 -1.1 36
2017-11-08 15:00:00 21.5 9 Sur 21 Sudeste 0 1015.5 -1.6 30
2017-11-08 14:00:00 21.4 13 Sudoeste 21 Sur 0 1015.5 -2 32
2017-11-08 13:00:00 21.6 11 Sur 20 Sur 0 1016.3 -1.1 30
2017-11-08 12:00:00 20.9 10 Sur 16 Sur 0 1017.1 0 39
2017-11-08 11:00:00 20.5 5 Sur 10 Sudeste 0 1017.5 1 34
2017-11-08 10:00:00 20.4 3 Oeste 8 Norte 0 1017.4 1.1 35
2017-11-08 09:00:00 16.1 3 Nordeste 7 Nordeste 0 1017.1 1.1 39
2017-11-08 08:00:00 10.7 3 Norte 8 Norte 0 1016.5 0.7 50
2017-11-08 07:00:00 11 2 Nordeste 10 Norte 0 1016.3 0.6 47
2017-11-08 06:00:00 11.2 6 Norte 10 Norte 0 1016 0.2 51
2017-11-08 05:00:00 11.6 3 Oeste 13 Noroeste 0 1015.8 -0.2 48
2017-11-08 04:00:00 11.2 2 Nordeste 12 Norte 0 1015.7 -0.4 55
2017-11-08 03:00:00 12.4 8 Norte 15 Norte 0 1015.8 -0.2 56
2017-11-08 02:00:00 12.7 7 Noroeste 15 Norte 0 1016 -0.2 70
2017-11-08 01:00:00 13 7 Noroeste 13 Noroeste 0 1016.1 0.3 74
2017-11-08 00:00:00 13.6 3 Noroeste 8 Norte 0 1016 0.4 72
2017-11-07 23:00:00 14.7 4 Noroeste 12 Nordeste 0 1016.2 0.8 67
2017-11-07 22:00:00 15.8 6 Nordeste 11 Nordeste 0 1015.8 0.8 65
2017-11-07 21:00:00 16.5 7 Nordeste 12 Nordeste 0 1015.6 1.2 62
2017-11-07 20:00:00 16.4 7 Nordeste 12 Nordeste 0 1015.4 0.9 59
2017-11-07 19:00:00 17 7 Nordeste 12 Nordeste 0 1015 0.7 56
2017-11-07 18:00:00 18.1 2 Noroeste 12 Sur 0 1014.4 0.2 52
2017-11-07 17:00:00 18.8 8 Sudoeste -- -- -- 1014.5 0.3 48
2017-11-07 16:00:00 19 8 Sudoeste 19 Sur 0 1014.3 -0.5 45
2017-11-07 15:00:00 19.1 11 Sur 24 Sur 0 1014.2 -1.3 38
2017-11-07 14:00:00 19 11 Sur 19 Sur 0 1014.2 -1.7 36
2017-11-07 13:00:00 18.7 10 Sur 18 Sudeste 0 1014.8 -0.6 31
2017-11-07 12:00:00 18.7 9 Sur 18 Sudeste 0 1015.5 0.2 33
2017-11-07 11:00:00 18.4 8 Sur 16 Sur 0 1015.9 1.1 33
2017-11-07 10:00:00 17.7 4 Sur 9 Sudoeste 0 1015.4 1.3 33
2017-11-07 09:00:00 14.6 0 Calma 8 Norte 0 1015.3 1.4 40
2017-11-07 08:00:00 10.2 5 Norte 16 Noroeste 0 1014.8 1.2 49
2017-11-07 07:00:00 10.4 6 Noroeste 13 Noroeste 0 1014.1 0.3 47
2017-11-07 06:00:00 12.3 3 Sur 13 Norte 0 1013.9 -0.4 37
2017-11-07 05:00:00 14.1 6 Norte 28 Norte 0 1013.6 -1 31
2017-11-07 04:00:00 13.3 6 Norte 21 Norte 0 1013.8 -1.1 35
2017-11-07 03:00:00 14.3 12 Noroeste 24 Noroeste 0 1014.3 -0.7 33
2017-11-07 02:00:00 14 5 Norte 19 Norte 0 1014.6 -0.5 34
2017-11-07 01:00:00 14.4 4 Norte 17 Norte 0 1014.9 -0.1 34
2017-11-07 00:00:00 14.2 7 Norte 15 Norte 0 1015 0.2 38
2017-11-06 23:00:00 13.6 4 Norte 10 Norte 0 1015.1 0.2 50
2017-11-06 22:00:00 14.4 3 Norte 11 Norte 0 1015 0.3 47
2017-11-06 21:00:00 15.5 6 Norte 15 Noroeste 0 1014.8 0.5 45
2017-11-06 20:00:00 15.8 5 Noroeste 16 Sudoeste 0 1014.9 1.2 44
2017-11-06 19:00:00 18.1 8 Sudoeste 30 Sur 0 1014.7 1.3 36
2017-11-06 18:00:00 18.9 14 Sur 28 Sudeste 0 1014.3 0.5 37
2017-11-06 17:00:00 21.2 17 Este 37 Este 0 1013.7 -1.4 20
2017-11-06 16:00:00 22.7 14 Este 34 Norte 0 1013.4 -2.8 19
2017-11-06 15:00:00 22.5 15 Nordeste 33 Nordeste 0 1013.8 -3.6 16
2017-11-06 14:00:00 21.9 12 Nordeste 39 Nordeste 0 1015.1 -3.1 17
2017-11-06 13:00:00 21.1 12 Norte 39 Norte 0 1016.2 -2.3 19
2017-11-06 12:00:00 20.5 18 Norte 41 Norte 0 1017.4 -0.9 21
2017-11-06 11:00:00 19.6 12 Nordeste 32 Norte 0 1018.2 0.6 23
2017-11-06 10:00:00 18.2 14 Norte 38 Nordeste 0 1018.5 1.6 26
2017-11-06 09:00:00 17.2 14 Norte 27 Norte 0 1018.3 1 27
2017-11-06 08:00:00 16 7 Norte 35 Norte 0 1017.6 0.4 29
2017-11-06 07:00:00 16.2 16 Norte 40 Norte 0 1016.9 -0.2 28
2017-11-06 06:00:00 16.6 14 Norte 30 Norte 0 1017.3 0.2 27
2017-11-06 05:00:00 16.6 7 Noroeste 20 Noroeste 0 1017.2 0 27
2017-11-06 04:00:00 16.7 8 Nordeste 49 Norte 0 1017.1 -0.3 27
2017-11-06 03:00:00 17.1 15 Norte 48 Norte 0 1017.1 -0.1 27
2017-11-06 02:00:00 17.4 22 Norte 53 Norte 0 1017.2 -0.1 27
2017-11-06 01:00:00 17.9 26 Norte 53 Norte 0 1017.4 0.4 28
2017-11-06 00:00:00 18.8 19 Norte 46 Norte 0 1017.2 0.8 27
2017-11-05 23:00:00 19.4 15 Norte 39 Norte 0 1017.3 1.5 26
2017-11-05 22:00:00 19.5 3 Nordeste 11 Nordeste 0 1017 1.8 32
2017-11-05 21:00:00 20.4 3 Norte 21 Norte 0 1016.4 1.9 29
2017-11-05 20:00:00 20.6 5 Norte 17 Nordeste 0 1015.8 1.6 29
2017-11-05 19:00:00 20.3 5 Nordeste 10 Nordeste 0 1015.2 1.5 56
2017-11-05 18:00:00 21.5 2 Sudeste 15 Sudoeste 0 1014.5 1.2 52
2017-11-05 17:00:00 22 6 Sudoeste 21 Sudoeste 0 1014.2 0.9 53
2017-11-05 16:00:00 22.7 10 Sudoeste 29 Sudeste 0 1013.7 -0.1 53
2017-11-05 15:00:00 22.4 11 Sudeste 24 Sudeste 0 1013.3 -1.1 51
2017-11-05 14:00:00 24 13 Sur 28 Nordeste 0 1013.3 -1.6 37
2017-11-05 13:00:00 25.4 10 Norte 28 Norte 0 1013.8 -0.9 23
2017-11-05 12:00:00 24.4 15 Noroeste 30 Norte 0 1014.4 0.2 27
2017-11-05 11:00:00 22.9 8 Oeste 19 Oeste 0 1014.9 1.6 39
2017-11-05 10:00:00 21.4 8 Noroeste 16 Oeste 0 1014.7 1.6 42
2017-11-05 09:00:00 18.8 2 Nordeste 14 Sudoeste 0 1014.2 1.8 52
2017-11-05 08:00:00 18.2 4 Sudoeste 14 Noroeste 0 1013.3 1 53
2017-11-05 07:00:00 18.6 2 Sur 20 Noroeste 0 1013.1 1.2 51
2017-11-05 06:00:00 17.4 5 Oeste 16 Noroeste 0 1012.4 0.2 57
2017-11-05 05:00:00 18.1 8 Noroeste 21 Noroeste 0 1012.3 0.2 52
2017-11-05 04:00:00 17.8 11 Noroeste 18 Noroeste 0 1011.9 -0.1 55
2017-11-05 03:00:00 17.7 8 Noroeste 13 Oeste 0 1012.2 0.4 54
2017-11-05 02:00:00 18.7 7 Noroeste 24 Noroeste 0 1012.1 0.5 50
2017-11-05 01:00:00 18.7 14 Noroeste 28 Noroeste 0 1012 0.8 50
2017-11-05 00:00:00 18.8 10 Noroeste 26 Noroeste 0 1011.8 1.3 48
2017-11-04 23:00:00 19.4 15 Oeste 36 Oeste 0 1011.6 1.6 44
2017-11-04 22:00:00 19.5 14 Noroeste 27 Noroeste 0 1011.2 1.7 45
2017-11-04 21:00:00 18.5 14 Noroeste 27 Noroeste 0 1010.5 1.9 50
2017-11-04 20:00:00 17.9 6 Noroeste 11 Oeste 0 1010 1.6 68
2017-11-04 19:00:00 19.6 4 Norte 10 Noroeste 0 1009.5 0.9 64
2017-11-04 18:00:00 21 4 Oeste 19 Sudoeste 0 1008.6 -0.3 59
2017-11-04 17:00:00 22 12 Sudoeste 27 Sur 0 1008.4 -0.6 55
2017-11-04 16:00:00 22.2 10 Sudoeste 26 Sudoeste 0 1008.6 -1.4 45
2017-11-04 15:00:00 21.1 13 Sudoeste 35 Sur 0 1008.9 -1.3 52
2017-11-04 14:00:00 24.4 10 Oeste 24 Noroeste 0 1009 -0.9 30
2017-11-04 13:00:00 21.2 16 Noroeste 38 Oeste 0 1010 0.3 38
2017-11-04 12:00:00 22.1 8 Sudoeste 21 Sudoeste 0 1010.2 0.8 50
2017-11-04 11:00:00 21 7 Sudoeste 16 Sur 0 1009.9 1.2 59
2017-11-04 10:00:00 21.7 6 Sudoeste 11 Sur 0 1009.7 1.2 63
2017-11-04 09:00:00 19.1 4 Norte 8 Norte 0 1009.4 0.8 72
2017-11-04 08:00:00 17.1 4 Nordeste 9 Nordeste 0 1008.7 0.1 77
2017-11-04 07:00:00 18.2 4 Nordeste 10 Nordeste 0 1008.5 0.4 76
2017-11-04 06:00:00 18.6 3 Norte 10 Norte 0 1008.6 0.5 74
2017-11-04 05:00:00 18.7 4 Norte 11 Oeste 0 1008.6 -1.1 74
2017-11-04 04:00:00 18.6 4 Norte 14 Sur 0 1008.1 -1.9 75
2017-11-04 03:00:00 18.6 4 Norte 13 Norte 0 1008.1 -1.4 76
2017-11-04 02:00:00 19.3 4 Oeste 10 Norte 0 1009.7 -0.5 75
2017-11-04 01:00:00 19.7 5 Noroeste 10 Noroeste 0 1010 0.9 73
2017-11-04 00:00:00 19.9 5 Nordeste 11 Nordeste 0 1009.5 0.3 73
2017-11-03 23:00:00 18.8 5 Norte 12 Oeste 0 1010.2 0.6 72
2017-11-03 22:00:00 19.1 4 Norte 10 Nordeste 0 1009.1 -0.4 71
2017-11-03 21:00:00 19.3 4 Nordeste 12 Norte 0 1009.2 -0.5 73
2017-11-03 20:00:00 19.4 5 Norte 11 Norte 0 1009.6 0.5 73
2017-11-03 19:00:00 20.1 0 Calma 4 Sur 0 1009.5 0.1 69
2017-11-03 18:00:00 20.7 3 Sur 8 Sudeste 0 1009.7 0.1 67
2017-11-03 17:00:00 20.9 6 Sudeste 14 Sudeste 0 1009.1 -1.1 66
2017-11-03 16:00:00 21.7 6 Sur 13 Sudeste 0 1009.4 -1.4 61
2017-11-03 15:00:00 21.6 7 Sur 12 Sudeste 0 1009.6 -1.8 62
2017-11-03 14:00:00 21.5 7 Sur 15 Sudeste 0 1010.2 -1.4 63
2017-11-03 13:00:00 21.5 8 Sudeste 17 Sudeste 0 1010.8 -0.8 64
2017-11-03 12:00:00 22.3 10 Sudeste 16 Este 0 1011.4 -0.2 60
2017-11-03 11:00:00 20.8 4 Sudeste 13 Sudeste 0 1011.6 0.6 64
2017-11-03 10:00:00 19.8 3 Sur 7 Este 0 1011.6 0.6 68
2017-11-03 09:00:00 17.7 3 Nordeste 8 Noroeste 0 1011.6 0.5 77
2017-11-03 08:00:00 16.4 4 Norte 9 Noroeste 0 1011 -0.8 78
2017-11-03 07:00:00 16.1 3 Norte 10 Nordeste 0 1011 -1.1 77
2017-11-03 06:00:00 15.9 5 Norte 12 Norte 0 1011.1 -1.4 77
2017-11-03 05:00:00 15.7 6 Norte 10 Norte 0 1011.8 -0.8 77
2017-11-03 04:00:00 15.9 3 Nordeste 10 Nordeste 0 1012.1 -1.2 75
2017-11-03 03:00:00 15.9 4 Norte 9 Nordeste 0 1012.5 -1.2 75
2017-11-03 02:00:00 15.7 3 Norte 8 Norte 0 1012.6 -1.3 75
2017-11-03 01:00:00 16.2 4 Nordeste 9 Norte 0 1013.3 -0.9 74
2017-11-03 00:00:00 16.6 3 Norte 9 Norte 0 1013.7 -0.3 72
2017-11-02 23:00:00 17.4 0 Calma 10 Nordeste 0 1013.9 0.1 70
2017-11-02 22:00:00 17.6 7 Norte 10 Norte 0 1014.2 0.6 73
2017-11-02 21:00:00 18.9 7 Nordeste 9 Nordeste 0 1014 0.7 71
2017-11-02 20:00:00 19.3 4 Norte 9 Norte 0 1013.8 0.5 70
2017-11-02 19:00:00 20.2 4 Este 15 Este 0 1013.6 0 68
2017-11-02 18:00:00 21 10 Este 19 Este 0 1013.3 -0.3 64
2017-11-02 17:00:00 22.5 11 Este 24 Este 0 1013.3 -1 57
2017-11-02 16:00:00 22.4 16 Sudeste 27 Sudeste 0 1013.6 -1.5 58
2017-11-02 15:00:00 22.8 18 Sudeste 30 Sudeste 0 1013.6 -2.7 55
2017-11-02 14:00:00 22.8 18 Sudeste 27 Sudeste 0 1014.3 -2.2 53
2017-11-02 13:00:00 24 13 Sudeste 27 Este 0 1015.1 -1.4 46
2017-11-02 12:00:00 24.6 8 Este 22 Este 0 1016.3 -0.2 47
2017-11-02 11:00:00 23 10 Este 23 Este 0 1016.5 0.3 50
2017-11-02 10:00:00 23 8 Este 19 Nordeste 0 1016.5 0.5 53
2017-11-02 09:00:00 20.4 5 Nordeste 9 Nordeste 0 1016.5 0.5 64
2017-11-02 08:00:00 16.7 3 Norte 9 Nordeste 0 1016.2 0.3 74
2017-11-02 07:00:00 16.5 6 Nordeste 10 Nordeste 0 1016 -0.3 73
2017-11-02 06:00:00 16.8 3 Norte 10 Norte 0 1016 -0.8 73
2017-11-02 05:00:00 17.4 4 Nordeste 11 Norte 0 1015.9 -1.1 72
2017-11-02 04:00:00 17.3 3 Nordeste 10 Norte 0 1016.3 -1.2 73
2017-11-02 03:00:00 17.8 5 Norte 11 Norte 0 1016.8 -0.9 73
2017-11-02 02:00:00 17.9 5 Nordeste 11 Nordeste 0 1017 -1.1 72
2017-11-02 01:00:00 17.9 4 Nordeste 10 Norte 0 1017.5 -0.5 73
2017-11-02 00:00:00 18.3 3 Nordeste 10 Nordeste 0 1017.7 0 69
2017-11-01 23:00:00 18.1 5 Nordeste 12 Nordeste 0 1018.1 0.5 72
2017-11-01 22:00:00 18.6 4 Nordeste 9 Norte 0 1018 0.8 72
2017-11-01 21:00:00 18.9 6 Norte 8 Norte 0 1017.7 1.1 70
2017-11-01 20:00:00 19.5 3 Norte 10 Nordeste 0 1017.6 0.9 67
2017-11-01 19:00:00 20 6 Nordeste 18 Este 0 1017.2 0.2 67
2017-11-01 18:00:00 20.9 11 Este 21 Sudeste 0 1016.6 -0.6 64
2017-11-01 17:00:00 22 14 Sudeste 22 Sudeste 0 1016.7 -0.9 62
2017-11-01 16:00:00 22.9 13 Sudeste 26 Sudeste 0 1017 -1.2 58
2017-11-01 15:00:00 23.2 16 Sudeste 27 Sudeste 0 1017.2 -1.7 57
2017-11-01 14:00:00 23.4 18 Sudeste 29 Sudeste 0 1017.6 -1.6 59
2017-11-01 13:00:00 23.7 12 Sudeste 25 Sudeste 0 1018.2 -0.8 56
2017-11-01 12:00:00 23.6 9 Este 22 Este 0 1018.9 0.3 56
2017-11-01 11:00:00 22.2 10 Este 24 Este 0 1019.2 1.2 61
2017-11-01 10:00:00 22.4 12 Este 27 Este 0 1019 1.6 61
2017-11-01 09:00:00 21.2 8 Este 12 Este 0 1018.6 1.4 68
2017-11-01 08:00:00 18.8 2 Noroeste 6 Este 0 1018 0.7 73
2017-11-01 07:00:00 18.6 3 Este 8 Nordeste 0 1017.4 -0.1 73
2017-11-01 06:00:00 17.6 3 Nordeste 8 Norte 0 1017.2 -0.5 76
2017-11-01 05:00:00 17 6 Norte 8 Norte 0 1017.3 -0.5 77
2017-11-01 04:00:00 16.7 3 Noroeste 7 Norte 0 1017.5 -0.6 76
2017-11-01 03:00:00 16.7 4 Norte 8 Norte 0 1017.7 -0.6 76
2017-11-01 02:00:00 16.5 6 Norte 10 Norte 0 1017.8 -0.4 75
2017-11-01 01:00:00 16.8 6 Norte 9 Norte 0 1018.1 0 74
2017-11-01 00:00:00 16.8 6 Norte 8 Norte 0 1018.3 0.5 73
2017-10-31 23:00:00 17.4 5 Norte 8 Norte 0 1018.2 1.1 70
2017-10-31 22:00:00 18.1 3 Norte 9 Norte 0 1018.1 1.4 69
2017-10-31 21:00:00 18.7 4 Nordeste 8 Nordeste 0 1017.8 1.5 71
2017-10-31 20:00:00 19.8 5 Nordeste 8 Nordeste 0 1017.1 1 68
2017-10-31 19:00:00 20.3 5 Este 14 Sudeste 0 1016.7 0.9 66
2017-10-31 18:00:00 21.1 9 Sudeste 20 Sudeste 0 1016.3 0.5 63
2017-10-31 17:00:00 22.3 14 Sudeste 26 Sudeste 0 1016.1 0.1 59
2017-10-31 16:00:00 22.7 17 Sudeste 31 Sudeste 0 1015.8 -0.5 55
2017-10-31 15:00:00 23 22 Sudeste 33 Sudeste 0 1015.8 -1 54
2017-10-31 14:00:00 23.7 20 Sudeste 34 Este 0 1016 -1.2 53
2017-10-31 13:00:00 24.6 17 Sudeste 35 Sudeste 0 1016.3 -0.8 48
2017-10-31 12:00:00 25 14 Este 28 Sudeste 0 1016.8 0.4 44
2017-10-31 11:00:00 24.3 9 Este 21 Este 0 1017.2 1.6 46
2017-10-31 10:00:00 22.7 10 Este 18 Este 0 1017.1 2.1 53
2017-10-31 09:00:00 20.2 6 Nordeste 11 Nordeste 0 1016.4 1.7 66
2017-10-31 08:00:00 16.8 4 Norte 8 Noroeste 0 1015.6 1 73
2017-10-31 07:00:00 16.4 5 Norte 10 Norte 0 1015 0.6 69
2017-10-31 06:00:00 15.8 7 Norte 10 Norte 0 1014.7 0.3 72
2017-10-31 05:00:00 16 4 Nordeste 9 Norte 0 1014.6 0.3 75
2017-10-31 04:00:00 16.6 4 Norte 9 Este 0 1014.4 -0.1 77
2017-10-31 03:00:00 16.3 2 Noroeste 6 Norte 0 1014.4 -0.2 76
2017-10-31 02:00:00 17.9 3 Nordeste 9 Nordeste 0 1014.3 -0.3 73
2017-10-31 01:00:00 17 0 Calma 5 Nordeste 0 1014.5 0.3 75
2017-10-31 00:00:00 17.8 0 Calma 8 Nordeste 0 1014.6 0.9 72
2017-10-30 23:00:00 19.1 4 Nordeste 10 Nordeste 0 1014.6 1.4 71
2017-10-30 22:00:00 19.4 6 Nordeste 10 Nordeste 0 1014.2 1.4 69
2017-10-30 21:00:00 19.9 6 Nordeste 8 Nordeste 0 1013.7 1.5 67
2017-10-30 20:00:00 20.1 4 Este 7 Sudeste 0 1013.2 1.4 66
2017-10-30 19:00:00 20.9 5 Sur 14 Sudeste 0 1012.8 1.1 66
2017-10-30 18:00:00 21.4 6 Sur 15 Sudeste 0 1012.2 0.5 64
2017-10-30 17:00:00 22.3 8 Sur 16 Sudeste 0 1011.8 -0.2 59
2017-10-30 16:00:00 22.8 9 Sur 18 Sudeste 0 1011.7 -0.9 54
2017-10-30 15:00:00 22.9 10 Sur 18 Sur 0 1011.7 -1.4 49
2017-10-30 14:00:00 23.4 8 Sur 17 Sur 0 1012 -1.2 45
2017-10-30 13:00:00 23 10 Sur 16 Sudeste 0 1012.6 -0.7 42
2017-10-30 12:00:00 23.3 7 Sur 15 Sudoeste 0 1013.1 0 48
2017-10-30 11:00:00 22.5 8 Sur 14 Sur 0 1013.2 0.5 51
2017-10-30 10:00:00 22.1 4 Sudoeste 8 Sudoeste 0 1013.3 1 56
2017-10-30 09:00:00 19.5 0 Calma 10 Este 0 1013.1 0.9 67
2017-10-30 08:00:00 16.7 2 Nordeste 7 Nordeste 0 1012.7 0.5 69
2017-10-30 07:00:00 16 2 Nordeste 9 Nordeste 0 1012.3 -0.1 66
2017-10-30 06:00:00 16.8 4 Nordeste 10 Nordeste 0 1012.2 -0.5 60
2017-10-30 05:00:00 16.7 7 Nordeste 12 Nordeste 0 1012.2 -0.8 59
2017-10-30 04:00:00 16.2 3 Nordeste 7 Nordeste 0 1012.4 -1 60
2017-10-30 03:00:00 16.4 2 Este 9 Nordeste 0 1012.7 -1.2 58
2017-10-30 02:00:00 16.3 2 Oeste 10 Noroeste 0 1013 -1.5 60
2017-10-30 01:00:00 16.7 3 Noroeste 8 Noroeste 0 1013.4 -1.5 68
2017-10-30 00:00:00 17 6 Noroeste 12 Noroeste 0 1013.9 -1.1 71
2017-10-29 23:00:00 17.4 4 Norte 8 Norte 0 1014.5 -0.6 70
2017-10-29 22:00:00 18.3 3 Norte 9 Norte 0 1014.9 -0.1 67
2017-10-29 21:00:00 18.6 0 Calma 9 Norte 0 1015 0.1 66
2017-10-29 20:00:00 20.1 5 Nordeste 7 Nordeste 0 1015.1 0.1 61
2017-10-29 19:00:00 20.8 3 Sudeste 10 Sudeste 0 1015 -0.2 56
2017-10-29 18:00:00 21.6 5 Sur 17 Sur 0 1014.9 -0.9 56
2017-10-29 17:00:00 22.5 7 Sudeste 15 Sudeste 0 1015 -1.3 57
2017-10-29 16:00:00 23 8 Sudeste 19 Sur 0 1015.2 -1.9 56
2017-10-29 15:00:00 23.4 9 Sur 18 Sudeste 0 1015.8 -2.1 56
2017-10-29 14:00:00 23.1 8 Sur 19 Sudeste 0 1016.3 -2.1 57
2017-10-29 13:00:00 23.1 11 Sudeste 20 Sur 0 1017.1 -1.4 59
2017-10-29 12:00:00 23.1 11 Sur 18 Sur 0 1017.9 -0.5 61
2017-10-29 11:00:00 23.3 8 Sur 13 Sur 0 1018.4 0.2 58
2017-10-29 10:00:00 22.9 2 Sur 8 Sudoeste 0 1018.5 0.4 62
2017-10-29 09:00:00 20.4 0 Calma 6 Oeste 0 1018.4 0.4 80
2017-10-29 08:00:00 18.4 5 Nordeste 10 Nordeste 0 1018.2 0.4 82
2017-10-29 07:00:00 17.8 0 Calma 10 Norte 0 1018.1 0.1 81
2017-10-29 06:00:00 18 4 Norte 10 Norte 0 1018 -0.4 83
2017-10-29 05:00:00 18.8 3 Nordeste 6 Norte 0 1017.8 -1 82
2017-10-29 04:00:00 19.6 3 Nordeste 6 Nordeste 0 1018 -1 81
2017-10-29 03:00:00 19.6 3 Norte 8 Norte 0.2 1018.4 -1.1 81
2017-10-29 02:00:00 19.3 5 Noroeste 8 Noroeste 0 1018.8 -1 78
2017-10-29 01:00:00 18.9 4 Norte 8 Norte 0 1019.5 -0.6 76
2017-10-29 00:00:00 19 3 Norte 8 Norte 0 1019.8 -0.1 74
2017-10-28 23:00:00 20 4 Nordeste 8 Nordeste 0 1020 0.4 73
2017-10-28 22:00:00 20.2 4 Nordeste 9 Nordeste 0 1020.1 0.9 73
2017-10-28 21:00:00 20.6 5 Nordeste 8 Nordeste 0 1019.9 0.9 72
2017-10-28 20:00:00 21.1 5 Este 13 Este 0 1019.6 0.8 70
2017-10-28 19:00:00 21.9 7 Este 22 Sudeste 0 1019.2 0.3 67
2017-10-28 18:00:00 23.1 13 Sudeste 24 Este 0 1019 -0.3 61
2017-10-28 17:00:00 24.3 10 Sudeste 21 Sudeste 0 1018.8 -1 51
2017-10-28 16:00:00 23.9 10 Sudeste 28 Sudeste 0 1018.9 -1.7 58
2017-10-28 15:00:00 23.6 16 Sudeste 27 Sudeste 0 1019.3 -1.7 59
2017-10-28 14:00:00 23.8 18 Sudeste 30 Este 0 1019.8 -1.3 57
2017-10-28 13:00:00 24.1 14 Sudeste 27 Sudeste 0 1020.6 -0.1 54
2017-10-28 12:00:00 25 12 Este 33 Este 0 1021 0.6 49
2017-10-28 11:00:00 23.5 13 Este 23 Nordeste 0 1021.1 1.3 56
2017-10-28 10:00:00 22 6 Nordeste 17 Este 0 1020.7 1.3 64
2017-10-28 09:00:00 18.7 4 Nordeste 12 Nordeste 0 1020.4 1.4 77
2017-10-28 08:00:00 17.8 5 Este 10 Este 0 1019.8 1.1 77
2017-10-28 07:00:00 16.5 5 Norte 11 Norte 0 1019.4 1.3 74
2017-10-28 06:00:00 18.4 4 Nordeste 18 Este 0 1019 0.9 82
2017-10-28 05:00:00 19.4 12 Este 28 Este 0 1018.7 0.6 81
2017-10-28 04:00:00 17.2 2 Nordeste 9 Nordeste 0 1018.1 -0.5 64
2017-10-28 03:00:00 17.7 6 Nordeste 11 Nordeste 0 1018.1 -1.1 76
2017-10-28 02:00:00 17.8 7 Nordeste 10 Nordeste 0 1018.1 -1.3 72
2017-10-28 01:00:00 18.4 5 Nordeste 10 Nordeste 0 1018.6 -1 69
2017-10-28 00:00:00 17.5 4 Nordeste 9 Nordeste 0 1019.2 -0.5 63
2017-10-27 23:00:00 17.9 4 Noroeste 10 Noroeste 0 1019.4 -0.4 59
2017-10-27 22:00:00 18.4 5 Noroeste 10 Noroeste 0 1019.6 -0.2 71
2017-10-27 21:00:00 19.5 6 Noroeste 9 Noroeste 0 1019.7 -0.2 75
2017-10-27 20:00:00 20.8 5 Oeste 9 Oeste 0 1019.8 -0.3 72
2017-10-27 19:00:00 22.4 4 Sudoeste 10 Sur 0 1019.8 -0.6 65
2017-10-27 18:00:00 23.1 8 Sur 14 Sur 0 1019.9 -1.1 60
2017-10-27 17:00:00 23.6 9 Sur 16 Sudoeste 0 1020.1 -1.8 54
2017-10-27 16:00:00 24.1 8 Sur 14 Sur 0 1020.4 -2.3 49
2017-10-27 15:00:00 24.7 8 Sudoeste 13 Sur 0 1021 -2.1 43
2017-10-27 14:00:00 24.3 7 Sudeste 13 Sudeste 0 1021.9 -1.3 43
2017-10-27 13:00:00 24.2 5 Sudeste 12 Sur 0 1022.7 -0.2 44
2017-10-27 12:00:00 23.4 6 Sur 12 Sur 0 1023.1 0.6 47
2017-10-27 11:00:00 23.2 5 Sur 10 Sudeste 0 1023.2 1 47
2017-10-27 10:00:00 20.4 0 Calma 5 Nordeste 0 1022.9 0.7 49
2017-10-27 09:00:00 15.1 0 Calma 10 Norte 0 1022.5 0.2 58
2017-10-27 08:00:00 14.8 7 Norte 10 Norte 0 1022.2 -0.3 61
2017-10-27 07:00:00 15.2 0 Calma 11 Norte 0 1022.2 -0.6 68
2017-10-27 06:00:00 14.9 4 Norte 8 Norte 0 1022.3 -0.8 70
2017-10-27 05:00:00 16.2 5 Nordeste 10 Norte 0 1022.5 -0.8 67
2017-10-27 04:00:00 15 0 Calma 6 Nordeste 0 1022.8 -0.8 63
2017-10-27 03:00:00 15.2 2 Nordeste 11 Nordeste 0 1023.1 -0.8 62
2017-10-27 02:00:00 15.1 0 Calma 8 Nordeste 0 1023.3 -0.7 65
2017-10-27 01:00:00 16.2 2 Norte 9 Norte 0 1023.6 -0.3 72
2017-10-27 00:00:00 16.7 0 Calma 7 Nordeste 0 1023.9 0.4 77
2017-10-26 23:00:00 18.2 4 Nordeste 8 Norte 0 1024 1.1 76
2017-10-26 22:00:00 19 4 Norte 11 Norte 0 1023.9 1.4 74
2017-10-26 21:00:00 19.4 4 Norte 9 Este 0 1023.5 1.3 74
2017-10-26 20:00:00 20.9 4 Este 15 Este 0 1022.9 0.7 74
2017-10-26 19:00:00 22.2 8 Sudeste 18 Sudeste 0 1022.5 0.3 66
2017-10-26 18:00:00 23.1 10 Sudeste 17 Sudeste 0 1022.2 0 64
2017-10-26 17:00:00 23.9 10 Sudeste 17 Sur 0 1022.2 -0.6 59
2017-10-26 16:00:00 24.2 12 Sur 20 Sudeste 0 1022.2 -1.1 48
2017-10-26 15:00:00 24.8 9 Sur 20 Sudeste 0 1022.2 -1.2 47
2017-10-26 14:00:00 25 9 Sudeste 19 Sudeste 0 1022.8 -0.5 49
2017-10-26 13:00:00 24.6 10 Sudeste 19 Sudeste 0 1023.3 0.2 49
2017-10-26 12:00:00 24.9 8 Sudeste 17 Este 0 1023.4 0.9 40
2017-10-26 11:00:00 24.3 8 Sudeste 13 Sudeste 0 1023.3 1.1 36
2017-10-26 10:00:00 21.2 0 Calma 9 Norte 0 1023.1 1.2 49
2017-10-26 09:00:00 16.2 2 Norte 7 Nordeste 0 1022.5 0.8 56
2017-10-26 08:00:00 15.5 4 Norte 9 Norte 0 1022.2 0.5 56
2017-10-26 07:00:00 15.4 0 Calma 9 Norte 0 1021.9 0 56
2017-10-26 06:00:00 15.8 8 Norte 11 Norte 0 1021.7 -0.4 55
2017-10-26 05:00:00 16 0 Calma 9 Nordeste 0 1021.7 -0.6 57
2017-10-26 04:00:00 15.6 2 Nordeste 11 Nordeste 0 1021.9 -0.7 59
2017-10-26 03:00:00 16 3 Nordeste 9 Nordeste 0 1022.1 -0.6 64
2017-10-26 02:00:00 16.7 0 Calma 8 Norte 0 1022.3 0.2 71
2017-10-26 01:00:00 18 4 Norte 9 Norte 0 1022.6 0.8 71
2017-10-26 00:00:00 18.9 6 Nordeste 10 Nordeste 0 1022.7 1.4 66